Oakdale, Minnesota
Current Conditions -  °F | °C
As of 11:31 AM on Saturday 25 Oct 2014 (Local Time) from K21D Reporting Station
Clear Clear  
Wind Chill: 59°   Ceiling: Unl
Heat Index: 59°   Visibility: 10mi
Dew Point: 34°   Wind: 15mph
Humidity: 39%   Direction: 310°NW
Pressure: 30.04"   Gusts: NA
Location:  44.97°N, 92.96°W
Report Text: K21D 251631Z AUTO 31013KT 10SM CLR 15/01 A3004 RMK AO2
Loading
Personal Weather Stations






























Interactive Weather Map
Tropical Storm Tracking
New forecast layout! Learn more

10-Day Weather Forecast

Advertisements
Track Severe Weather on mobile